Honselersdijk, Netherlands
Current Conditions -  °F | °C
As of 10:55 PM on Friday 31 Oct 2014 (Local Time) from EHRD Reporting Station
Clear Clear  
Wind Chill: 59°   Ceiling: Unl
Heat Index: 59°   Visibility: 6mi
Dew Point: 54°   Wind: 12mph
Humidity: 82%   Direction: 170°S
Pressure: 30.06"   Gusts: NA
Location:  52.01°N, 4.22°E
Report Text: EHRD 312155Z AUTO 17010KT 140V200 9999 NCD 15/12 Q1018 NOSIG
Loading
Personal Weather Stations






























Interactive Weather Map
Tropical Storm Tracking
New forecast layout! Learn more

10-Day Weather Forecast

Advertisements
Track Severe Weather on mobile